Data for 11/17/2017

Time Sea-Level Adjusted Pressure Absolute Pressure Temperature Relative Humidity Dew Point   
(mb) (inHg) (mb) (inHg) (C) (F) (%) (C) (F)
00:05 1007 29.74 836 24.69 0.4 32.6 75 -3.5 25.7
00:10 1007 29.74 836 24.69 0.7 33.2 73 -3.6 25.5
00:15 1007 29.74 836 24.69 0.7 33.3 74 -3.4 25.8
00:20 1007 29.74 836 24.69 0.7 33.3 73 -3.6 25.6
00:25 1006 29.71 836 24.69 0.8 33.4 73 -3.6 25.5
00:30 1006 29.71 836 24.69 0.8 33.4 74 -3.3 26
00:35 1006 29.71 836 24.69 0.5 32.8 76 -3.4 26
00:40 1006 29.71 836 24.69 0.4 32.7 75 -3.5 25.7
00:45 1006 29.71 836 24.69 0.3 32.6 78 -3.1 26.4
00:50 1006 29.71 836 24.69 0.2 32.4 77 -3.3 26
00:55 1006 29.71 836 24.69 0.3 32.5 76 -3.4 25.9
01:00 1006 29.71 835 24.66 0.4 32.7 72 -4 24.8
01:05 1006 29.71 835 24.66 0.9 33.6 71 -3.7 25.3
01:10 1006 29.71 835 24.66 1.7 35 56 -6.2 20.9
01:15 1006 29.71 835 24.66 2.6 36.7 57 -5.1 22.9
01:20 1006 29.71 835 24.66 2.6 36.6 58 -4.8 23.3
01:25 1006 29.71 835 24.66 2.5 36.5 56 -5.5 22.1
01:30 1006 29.71 835 24.66 2.6 36.6 56 -5.5 22.2
01:35 1006 29.71 835 24.66 2.5 36.5 57 -5.2 22.6
01:40 1006 29.71 836 24.69 2.3 36.2 58 -5.1 22.8
01:45 1007 29.74 836 24.69 2.3 36.1 59 -4.9 23.1
01:50 1007 29.74 836 24.69 2.3 36.2 57 -5.3 22.4
01:55 1007 29.74 836 24.69 2.2 36 60 -4.7 23.6
02:00 1007 29.74 836 24.69 2 35.5 62 -4.6 23.8
02:05 1007 29.74 836 24.69 1.8 35.3 63 -4.4 24.1
02:10 1007 29.74 836 24.69 1.6 34.9 65 -4.2 24.4
02:15 1007 29.74 836 24.69 1.4 34.6 67 -4 24.8
02:20 1007 29.74 836 24.69 1.2 34.2 69 -3.9 25
02:25 1007 29.74 836 24.69 1.1 33.9 72 -3.5 25.7
02:25 1007 29.74 836 24.69 1.1 33.9 72 -3.5 25.7
02:30 1007 29.74 836 24.69 0.8 33.5 73 -3.4 25.8
02:35 1007 29.74 836 24.69 0.5 33 75 -3.4 25.9
02:40 1007 29.74 836 24.69 0.3 32.6 76 -3.4 25.9
02:45 1007 29.74 836 24.69 0.2 32.3 77 -3.4 25.9
02:50 1006 29.71 836 24.69 0.1 32.1 78 -3.4 25.9
02:55 1006 29.71 836 24.69 0.1 32.1 78 -3.4 25.9
03:00 1006 29.71 836 24.69 -0.2 31.6 80 -3.3 26.1
03:05 1006 29.71 836 24.69 -0.2 31.6 79 -3.4 25.8
03:10 1006 29.71 836 24.69 -0.1 31.8 77 -3.7 25.3
03:15 1006 29.71 836 24.69 0.1 32.1 78 -3.4 25.9
03:20 1006 29.71 836 24.69 -0.2 31.6 80 -3.3 26.1
03:25 1006 29.71 835 24.66 -0.7 30.8 83 -3.3 26.1
03:30 1006 29.71 835 24.66 -1.1 30 84 -3.5 25.7
03:35 1006 29.71 835 24.66 -1.2 29.8 84 -3.5 25.7
03:40 1006 29.71 835 24.66 -1.3 29.6 85 -3.6 25.6
03:45 1006 29.71 835 24.66 -1.4 29.5 85 -3.6 25.5
03:50 1006 29.71 835 24.66 -1.1 30.1 83 -3.7 25.4
03:55 1006 29.71 835 24.66 -0.9 30.4 82 -3.6 25.5
04:00 1006 29.71 835 24.66 -0.8 30.5 80 -3.8 25.2
04:05 1006 29.71 835 24.66 -0.5 31 78 -3.9 25.1
04:10 1006 29.71 835 24.66 -0.5 31.1 77 -4 24.8
04:15 1006 29.71 835 24.66 -0.5 31.2 76 -4.1 24.6
04:20 1006 29.71 836 24.69 -0.5 31.1 77 -4.1 24.6
04:25 1006 29.71 836 24.69 -0.6 31 75 -4.4 24.1
04:30 1006 29.71 836 24.69 -0.5 31.2 75 -4.4 24.1
04:35 1006 29.71 836 24.69 -0.5 31.1 76 -4.3 24.3
04:40 1006 29.71 836 24.69 -0.7 30.8 76 -4.4 24.1
04:45 1006 29.71 836 24.69 -1 30.3 78 -4.4 24.1
04:50 1007 29.74 836 24.69 -0.9 30.3 77 -4.4 24.1
04:55 1007 29.74 836 24.69 -0.7 30.7 75 -4.7 23.6
05:00 1007 29.74 836 24.69 -0.6 30.9 74 -4.7 23.5
05:05 1007 29.74 836 24.69 -0.5 31.2 73 -4.6 23.6
05:10 1007 29.74 836 24.69 -0.2 31.6 74 -4.3 24.2
05:15 1007 29.74 836 24.69 -0.1 31.9 74 -4.1 24.6
05:20 1007 29.74 836 24.69 0.3 32.5 69 -4.7 23.5
05:25 1007 29.74 836 24.69 0.7 33.3 71 -3.9 25
05:30 1007 29.74 836 24.69 0.6 33 71 -4.1 24.5
05:35 1007 29.74 836 24.69 0.5 33 71 -4.1 24.5
05:40 1007 29.74 836 24.69 0.4 32.7 72 -4.1 24.6
05:45 1007 29.74 836 24.69 0.2 32.3 71 -4.5 23.9
05:50 1007 29.74 836 24.69 0.1 32.1 71 -4.5 23.8
05:55 1007 29.74 836 24.69 -0.1 31.9 72 -4.5 24
06:00 1007 29.74 836 24.69 -0.5 31.1 76 -4.1 24.5
06:05 1007 29.74 836 24.69 -0.6 30.9 78 -4 24.9
06:10 1007 29.74 837 24.72 -0.6 30.8 78 -3.9 24.9
06:15 1007 29.74 837 24.72 -0.9 30.3 80 -4 24.8
06:20 1007 29.74 837 24.72 -1.1 30.1 80 -4 24.7
06:25 1007 29.74 837 24.72 -1.1 30 81 -4 24.8
06:30 1007 29.74 837 24.72 -1 30.2 79 -4.2 24.4
06:35 1008 29.77 837 24.72 -1 30.2 80 -4.1 24.6
06:40 1007 29.74 837 24.72 -1 30.1 80 -4.1 24.6
06:45 1007 29.74 837 24.72 -1.1 30 80 -4.1 24.6
06:50 1008 29.77 837 24.72 -1.2 29.8 80 -4.2 24.5
06:55 1008 29.77 837 24.72 -1 30.3 78 -4.3 24.3
07:00 1008 29.77 837 24.72 -0.9 30.4 77 -4.4 24.2
07:05 1008 29.77 837 24.72 -0.8 30.5 76 -4.6 23.8
07:10 1008 29.77 837 24.72 -0.8 30.6 76 -4.5 23.9
07:15 1008 29.77 837 24.72 -0.7 30.8 75 -4.5 23.8
07:20 1008 29.77 837 24.72 -0.5 31 74 -4.6 23.7
07:25 1008 29.77 837 24.72 -0.5 31.2 72 -4.9 23.1
07:30 1008 29.77 837 24.72 -0.4 31.4 70 -5.2 22.7
07:35 1008 29.77 837 24.72 0 32 68 -5.3 22.5
07:40 1008 29.77 837 24.72 0.1 32.2 68 -5.2 22.7
07:45 1008 29.77 837 24.72 0.3 32.5 68 -5 23
07:50 1008 29.77 837 24.72 0.4 32.7 66 -5.3 22.5
07:55 1008 29.77 837 24.72 0.4 32.8 65 -5.5 22.2
08:00 1008 29.77 837 24.72 0.5 32.9 66 -5.2 22.7
08:05 1008 29.77 837 24.72 0.7 33.3 64 -5.3 22.5
08:10 1008 29.77 837 24.72 0.8 33.4 64 -5.3 22.4
08:15 1008 29.77 838 24.75 0.8 33.5 63 -5.3 22.4
08:20 1008 29.77 838 24.75 1 33.7 63 -5.4 22.3
08:25 1008 29.77 838 24.75 1.2 34.2 62 -5.2 22.6
08:30 1009 29.8 838 24.75 1.4 34.5 63 -4.9 23.2
08:35 1009 29.8 838 24.75 1.2 34.2 63 -5.1 22.8
08:40 1009 29.8 838 24.75 1.1 33.9 63 -5.2 22.6
08:45 1009 29.8 838 24.75 1.2 34.2 66 -4.5 23.9
08:50 1009 29.8 838 24.75 1.2 34.1 63 -5 22.9
08:55 1009 29.8 838 24.75 1.3 34.4 63 -4.8 23.3
09:00 1009 29.8 838 24.75 1.3 34.4 63 -4.9 23.2
09:05 1009 29.8 838 24.75 1.4 34.6 63 -4.8 23.3
09:10 1009 29.8 838 24.75 1.2 34.2 63 -5 23.1
09:15 1009 29.8 839 24.78 1.2 34.1 62 -5.2 22.6
09:20 1009 29.8 839 24.78 1.1 34 61 -5.6 21.8
09:25 1009 29.8 839 24.78 1.1 33.9 61 -5.7 21.8
09:30 1009 29.8 839 24.78 1.1 34.1 60 -5.8 21.6
09:35 1009 29.8 839 24.78 1.1 34 60 -5.9 21.4
09:40 1010 29.83 839 24.78 1.2 34.2 59 -5.9 21.4
09:45 1010 29.83 839 24.78 1.3 34.3 59 -5.9 21.3
09:50 1010 29.83 839 24.78 1.2 34.2 59 -5.8 21.5
09:55 1010 29.83 839 24.78 1.2 34.2 58 -6.1 21.1
10:00 1010 29.83 839 24.78 1.1 34.1 59 -6.1 21.1
10:05 1010 29.83 839 24.78 1.2 34.1 59 -5.9 21.4
10:10 1010 29.83 839 24.78 1.2 34.2 59 -6.1 21.1
10:15 1010 29.83 839 24.78 1.4 34.6 58 -6 21.1
10:20 1010 29.83 839 24.78 1.9 35.5 55 -6.1 21
10:25 1010 29.83 839 24.78 2.1 35.8 55 -6 21.2
10:30 1010 29.83 839 24.78 1.7 35 57 -6 21.2
10:35 1010 29.83 839 24.78 1.6 34.9 56 -6.2 20.9
10:40 1010 29.83 839 24.78 1.6 34.8 57 -6.1 21.1
10:45 1010 29.83 839 24.78 1.9 35.5 55 -6.1 21.1
10:50 1010 29.83 839 24.78 2.8 37 52 -6.2 20.9
10:55 1010 29.83 839 24.78 3.1 37.6 51 -6.1 20.9
11:00 1010 29.83 839 24.78 3.3 37.9 53 -5.5 22.2
11:05 1010 29.83 839 24.78 3.4 38.1 50 -6 21.2
11:10 1010 29.83 839 24.78 3.5 38.3 50 -6.1 21.1
11:15 1010 29.83 839 24.78 3.3 37.9 49 -6.5 20.3
11:20 1010 29.83 839 24.78 3.3 37.9 48 -6.6 20.1
11:25 1010 29.83 839 24.78 3.5 38.3 45 -7.3 18.9
11:30 1010 29.83 839 24.78 3.7 38.7 49 -6 21.2
11:35 1010 29.83 839 24.78 2 35.7 52 -6.8 19.7
11:40 1010 29.83 839 24.78 1.9 35.4 54 -6.4 20.6
11:45 1010 29.83 839 24.78 2.5 36.4 52 -6.5 20.3
11:50 1010 29.83 839 24.78 1.7 35.1 54 -6.5 20.2
11:55 1010 29.83 839 24.78 1.6 34.9 52 -7.2 19
12:00 1010 29.83 839 24.78 2.6 36.6 46 -7.9 17.8
12:05 1010 29.83 840 24.81 3 37.4 45 -7.8 17.9
12:10 1010 29.83 840 24.81 3.2 37.8 43 -8.2 17.2
12:15 1010 29.83 840 24.81 3.7 38.7 42 -8.1 17.5
12:20 1010 29.83 840 24.81 3.7 38.7 42 -8.1 17.5
12:25 1011 29.85 840 24.81 3.1 37.5 44 -8.1 17.4
12:30 1011 29.85 840 24.81 2.7 36.9 44 -8.2 17.2
12:35 1011 29.85 840 24.81 2.7 36.9 45 -7.9 17.7
12:40 1011 29.85 840 24.81 2.6 36.8 46 -8 17.7
12:45 1011 29.85 840 24.81 2.6 36.7 45 -8.3 17.1
12:50 1011 29.85 840 24.81 2.6 36.6 45 -8.1 17.5
12:55 1011 29.85 840 24.81 2.5 36.5 45 -8.4 17
13:00 1011 29.85 840 24.81 2.4 36.3 44 -8.5 16.7
13:05 1011 29.85 840 24.81 2.3 36.1 43 -8.9 15.9
13:10 1011 29.85 840 24.81 2.2 35.9 42 -9.5 15
13:15 1011 29.85 840 24.81 2.2 35.9 43 -9.3 15.3
13:20 1011 29.85 840 24.81 2.1 35.8 43 -9.3 15.3
13:25 1011 29.85 840 24.81 2.1 35.9 42 -9.4 15
13:30 1011 29.85 840 24.81 2.4 36.2 40 -9.8 14.3
13:35 1011 29.85 840 24.81 2.9 37.3 37 -10.2 13.6
13:40 1011 29.85 840 24.81 3.4 38.1 37 -10.1 13.9
13:45 1011 29.85 840 24.81 3.7 38.6 34 -10.8 12.6
13:50 1011 29.85 841 24.83 3.6 38.5 37 -9.9 14.2
13:55 1011 29.85 841 24.83 3.3 37.9 38 -9.6 14.7
14:00 1011 29.85 841 24.83 2.9 37.2 38 -10 14.1
14:05 1011 29.85 841 24.83 2.9 37.2 37 -10.6 13
14:10 1011 29.85 841 24.83 3.2 37.7 38 -9.8 14.4
14:15 1011 29.85 841 24.83 3.5 38.3 39 -9.4 15.2
14:20 1012 29.88 841 24.83 2.9 37.2 38 -10.2 13.6
14:25 1012 29.88 841 24.83 2.5 36.5 37 -10.8 12.6
14:30 1012 29.88 841 24.83 2.4 36.3 38 -10.7 12.8
14:35 1012 29.88 841 24.83 2.3 36.1 38 -10.6 12.9
14:40 1012 29.88 841 24.83 2.2 35.9 40 -10.2 13.6
14:45 1012 29.88 841 24.83 2.1 35.7 41 -9.7 14.5
14:50 1013 29.91 842 24.86 1 33.9 60 -5.9 21.4
14:55 1013 29.91 842 24.86 -0.3 31.4 68 -5.6 21.9
15:00 1013 29.91 842 24.86 -1 30.3 69 -6 21.3
15:05 1013 29.91 843 24.89 -1 30.1 68 -6.2 20.8
15:10 1013 29.91 843 24.89 -1.2 29.8 69 -6.2 20.8
15:15 1013 29.91 843 24.89 -1.4 29.5 69 -6.3 20.6
15:20 1013 29.91 843 24.89 -1.3 29.6 69 -6.3 20.6
15:25 1014 29.94 843 24.89 -1.3 29.6 69 -6.2 20.8
15:30 1014 29.94 843 24.89 -1.3 29.6 70 -6.2 20.8
15:35 1014 29.94 843 24.89 -1.3 29.6 71 -5.9 21.4
15:40 1014 29.94 843 24.89 -1.4 29.4 72 -5.9 21.3
15:45 1014 29.94 843 24.89 -1.4 29.4 72 -5.9 21.4
15:50 1014 29.94 844 24.92 -1.5 29.4 72 -5.9 21.5
15:55 1014 29.94 843 24.89 -1.9 28.6 76 -5.6 21.9
16:00 1014 29.94 844 24.92 -2.3 27.8 77 -5.9 21.5
16:05 1014 29.94 844 24.92 -2.4 27.7 77 -6 21.3
16:10 1015 29.97 844 24.92 -2.2 28.1 74 -6.2 20.9
16:15 1015 29.97 844 24.92 -1.9 28.5 73 -6.2 20.8
16:20 1015 29.97 844 24.92 -2.1 28.2 76 -5.8 21.5
16:25 1015 29.97 844 24.92 -2.4 27.7 75 -6.2 20.8
16:30 1015 29.97 844 24.92 -2.1 28.3 74 -6.1 21
16:35 1015 29.97 844 24.92 -1.9 28.5 73 -6.1 21
16:40 1015 29.97 844 24.92 -1.9 28.6 73 -6.1 20.9
16:45 1015 29.97 844 24.92 -1.8 28.8 71 -6.4 20.6
16:50 1015 29.97 845 24.95 -1.6 29.2 70 -6.4 20.4
16:55 1015 29.97 845 24.95 -1.5 29.2 69 -6.6 20.1
17:00 1016 30 845 24.95 -1.6 29.2 60 -8.4 16.9
17:05 1016 30 845 24.95 -1.2 29.8 62 -7.5 18.5
17:10 1016 30 845 24.95 -1.4 29.5 62 -7.7 18.2
17:15 1016 30 845 24.95 -1.4 29.4 62 -7.8 17.9
17:20 1016 30 845 24.95 -1.4 29.4 62 -7.8 18
17:25 1016 30 845 24.95 -1.5 29.4 64 -7.5 18.5
17:30 1016 30 845 24.95 -1.5 29.3 65 -7.3 18.9
17:35 1016 30 845 24.95 -1.6 29.2 65 -7.3 18.8
17:40 1016 30 845 24.95 -1.7 29 64 -7.5 18.5
17:45 1016 30 846 24.98 -1.8 28.7 63 -7.9 17.7
17:50 1016 30 846 24.98 -2.1 28.3 63 -8.3 17.1
17:55 1017 30.03 846 24.98 -2.2 28 62 -8.6 16.5
18:00 1017 30.03 846 24.98 -2.4 27.7 59 -9.4 15.2
18:05 1017 30.03 846 24.98 -2.5 27.5 55 -10.4 13.3
18:10 1017 30.03 846 24.98 -2.2 28 50 -11.3 11.7
18:15 1017 30.03 846 24.98 -1.7 28.9 48 -11.4 11.4
18:20 1017 30.03 846 24.98 -1.5 29.2 47 -11.4 11.4
18:25 1017 30.03 846 24.98 -1.5 29.3 46 -11.7 11
18:30 1017 30.03 846 24.98 -1.6 29.1 46 -11.8 10.8
18:35 1017 30.03 846 24.98 -1.4 29.4 44 -12.2 10
18:40 1017 30.03 847 25.01 -1 30.2 43 -12 10.3
18:45 1017 30.03 847 25.01 -0.9 30.4 43 -12.1 10.3
18:50 1018 30.06 847 25.01 -0.9 30.5 44 -11.7 10.9
18:55 1018 30.06 847 25.01 -1.1 29.9 45 -11.7 11
19:00 1018 30.06 847 25.01 -1.5 29.4 47 -11.4 11.4
19:05 1018 30.06 847 25.01 -1.7 28.9 46 -12 10.5
19:10 1018 30.06 847 25.01 -1.7 28.9 44 -12.5 9.5
19:15 1018 30.06 847 25.01 -1.5 29.3 44 -12.4 9.7
19:20 1018 30.06 847 25.01 -1.5 29.3 44 -12.3 9.9
19:25 1018 30.06 847 25.01 -1.5 29.3 45 -12 10.4
19:30 1018 30.06 848 25.04 -1.4 29.4 45 -12 10.4
19:35 1018 30.06 848 25.04 -1.3 29.7 46 -11.6 11.1
19:40 1019 30.09 848 25.04 -1.3 29.7 46 -11.5 11.4
19:45 1019 30.09 848 25.04 -1.3 29.6 46 -11.4 11.4
19:50 1019 30.09 848 25.04 -1.4 29.5 47 -11.2 11.8
19:55 1019 30.09 848 25.04 -1.5 29.3 48 -11.2 11.9
20:00 1019 30.09 848 25.04 -1.6 29.2 49 -10.9 12.4
20:05 1019 30.09 848 25.04 -1.8 28.9 50 -10.9 12.4
20:10 1019 30.09 848 25.04 -1.7 29 49 -11.2 11.9
20:15 1019 30.09 848 25.04 -1.5 29.3 47 -11.3 11.6
20:20 1019 30.09 848 25.04 -1.5 29.4 48 -11.1 12
20:25 1019 30.09 848 25.04 -1.5 29.2 48 -11.2 11.8
20:30 1019 30.09 848 25.04 -1.7 28.9 49 -11.2 11.9
20:35 1019 30.09 849 25.07 -1.7 28.9 48 -11.4 11.5
20:40 1019 30.09 849 25.07 -1.6 29.1 47 -11.5 11.3
20:45 1020 30.12 849 25.07 -1.8 28.8 48 -11.5 11.3
20:50 1020 30.12 849 25.07 -2.1 28.2 47 -12 10.4
20:55 1020 30.12 849 25.07 -2.1 28.2 45 -12.6 9.3
21:00 1020 30.12 849 25.07 -2.1 28.2 45 -12.6 9.3
21:05 1020 30.12 849 25.07 -2.1 28.2 44 -12.8 9
21:10 1020 30.12 849 25.07 -2 28.4 43 -12.9 8.8
21:15 1020 30.12 849 25.07 -2 28.5 44 -12.6 9.4
21:20 1020 30.12 849 25.07 -1.9 28.5 44 -12.6 9.4
21:25 1020 30.12 849 25.07 -2 28.4 45 -12.4 9.7
21:30 1020 30.12 849 25.07 -1.9 28.5 44 -12.6 9.3
21:35 1020 30.12 849 25.07 -1.9 28.5 46 -12.2 10.1
21:40 1020 30.12 849 25.07 -2 28.5 45 -12.5 9.5
21:45 1020 30.12 849 25.07 -2 28.3 47 -12 10.4
21:50 1020 30.12 849 25.07 -2.6 27.4 48 -12.1 10.2
21:55 1020 30.12 849 25.07 -2.6 27.3 47 -12.3 9.8
22:00 1020 30.12 849 25.07 -2.4 27.7 47 -12.2 10
22:05 1020 30.12 850 25.1 -2.2 28 46 -12.2 10
22:10 1021 30.15 850 25.1 -2 28.3 46 -12.3 9.9
22:15 1021 30.15 850 25.1 -1.8 28.7 44 -12.4 9.7
22:20 1021 30.15 850 25.1 -1.7 29 44 -12.3 9.9
22:25 1021 30.15 850 25.1 -1.8 28.8 45 -12.1 10.2
22:30 1021 30.15 850 25.1 -1.9 28.5 46 -12.2 10
22:35 1021 30.15 850 25.1 -2 28.4 46 -12.2 10.1
22:40 1021 30.15 850 25.1 -2.2 28 48 -11.9 10.6
22:45 1021 30.15 850 25.1 -2.7 27.1 49 -12 10.3
22:50 1021 30.15 850 25.1 -2.9 26.9 50 -11.9 10.7
22:55 1021 30.15 850 25.1 -2.8 27 50 -11.8 10.7
23:00 1021 30.15 850 25.1 -2.7 27.1 51 -11.6 11.1
23:05 1021 30.15 851 25.13 -2.8 26.9 50 -11.8 10.7
23:10 1021 30.15 851 25.13 -3 26.7 53 -11.3 11.6
23:15 1022 30.18 851 25.13 -3.2 26.2 53 -11.6 11.2
23:20 1022 30.18 851 25.13 -3.5 25.8 54 -11.6 11.1
23:25 1022 30.18 851 25.13 -3.8 25.3 54 -11.7 11
23:30 1022 30.18 851 25.13 -3.9 25.1 54 -11.9 10.5
23:35 1022 30.18 851 25.13 -3.6 25.5 53 -11.8 10.8
23:40 1022 30.18 851 25.13 -3.5 25.7 52 -11.9 10.6
23:45 1022 30.18 851 25.13 -3.4 25.9 52 -11.8 10.7
23:50 1022 30.18 851 25.13 -3.2 26.2 50 -12.1 10.2
23:55 1022 30.18 851 25.13 -3.2 26.2 50 -12.1 10.1
24:00 1022 30.18 851 25.13 -3.3 26 50 -12.4 9.7